Pancevo, Serbia
Current Conditions -  °F | °C
As of 5:30 AM on Monday 22 Dec 2014 (Local Time) from LYBE Reporting Station
Clear Clear  
Wind Chill: -2°   Ceiling: Unl
Heat Index:   Visibility: 6mi
Dew Point: -3°   Wind: 10mph
Humidity: 70%   Direction: 180°S
Pressure: 30.39"   Gusts: NA
Location:  44.87°N, 20.66°E
Report Text: LYBE 220330Z 18009KT CAVOK 02/M03 Q1029 NOSIG
Loading
Personal Weather Stations






























Interactive Weather Map New forecast layout! Learn more

10-Day Weather Forecast

Advertisements
Track Severe Weather on mobile